createdAt,value
2022-12-22T00:00:07.076Z,1.83
2022-12-22T00:02:52.092Z,2.10
2022-12-22T00:05:40.887Z,1.80
2022-12-22T00:08:26.519Z,1.85
2022-12-22T00:11:12.818Z,1.63
2022-12-22T00:14:00.682Z,1.60
2022-12-22T00:16:51.396Z,1.63
2022-12-22T00:19:36.731Z,1.23
2022-12-22T00:22:31.203Z,1.17
2022-12-22T00:25:16.083Z,1.30
2022-12-22T00:28:01.475Z,1.50
2022-12-22T00:30:46.854Z,1.40
2022-12-22T00:33:35.309Z,1.48
2022-12-22T00:36:22.122Z,1.40
2022-12-22T00:39:06.933Z,1.50
2022-12-22T00:41:51.671Z,1.87
2022-12-22T00:44:36.466Z,1.50
2022-12-22T00:47:21.241Z,1.40
2022-12-22T00:50:07.479Z,1.70
2022-12-22T00:52:53.771Z,1.63
2022-12-22T00:55:50.593Z,1.40
2022-12-22T00:58:38.296Z,1.20
2022-12-22T01:01:23.765Z,1.58
2022-12-22T01:04:08.860Z,1.70
2022-12-22T01:06:55.410Z,1.75
2022-12-22T01:09:41.706Z,1.77
2022-12-22T01:12:38.207Z,1.80
2022-12-22T01:15:30.222Z,1.58
2022-12-22T01:18:15.285Z,1.45
2022-12-22T01:21:00.096Z,1.20
2022-12-22T01:23:44.735Z,1.13
2022-12-22T01:26:30.406Z,1.20
2022-12-22T01:29:15.287Z,1.45
2022-12-22T01:32:00.521Z,1.17
2022-12-22T01:34:45.397Z,1.15
2022-12-22T01:37:30.138Z,0.93
2022-12-22T01:40:14.848Z,1.35
2022-12-22T01:42:59.566Z,1.17
2022-12-22T01:45:48.485Z,1.38
2022-12-22T01:48:38.265Z,1.13
2022-12-22T01:51:31.241Z,1.10
2022-12-22T01:54:17.107Z,1.70
2022-12-22T01:57:03.349Z,1.55
2022-12-22T01:59:48.234Z,1.10
2022-12-22T02:02:35.208Z,1.40
2022-12-22T02:05:23.624Z,1.10
2022-12-22T02:08:17.522Z,1.10
2022-12-22T02:11:20.094Z,0.80
2022-12-22T02:14:29.729Z,1.20
2022-12-22T02:17:18.214Z,0.80
2022-12-22T02:20:39.690Z,1.03
2022-12-22T02:23:58.645Z,0.98
2022-12-22T02:26:56.520Z,0.73
2022-12-22T02:29:47.842Z,0.55
2022-12-22T02:32:32.758Z,0.70
2022-12-22T02:35:17.479Z,0.40
2022-12-22T02:38:10.148Z,0.40
2022-12-22T02:41:08.150Z,0.40
2022-12-22T02:44:10.579Z,0.50
2022-12-22T02:47:33.222Z,0.50
2022-12-22T02:50:43.737Z,0.50
2022-12-22T02:53:32.684Z,0.40
2022-12-22T02:56:21.241Z,0.40
2022-12-22T02:59:06.469Z,0.30
2022-12-22T03:01:51.779Z,0.30
2022-12-22T03:04:37.110Z,0.40
2022-12-22T03:07:21.757Z,0.40
2022-12-22T03:10:06.486Z,0.50
2022-12-22T03:12:51.342Z,0.50
2022-12-22T03:15:36.240Z,0.90
2022-12-22T03:18:24.120Z,0.60
2022-12-22T03:21:08.825Z,0.80
2022-12-22T03:23:53.626Z,0.80
2022-12-22T03:26:20.194Z,0.77
2022-12-22T03:28:46.877Z,0.88
2022-12-22T03:31:13.545Z,1.10
2022-12-22T03:33:40.793Z,0.93
2022-12-22T03:36:08.287Z,1.00
2022-12-22T03:38:34.927Z,0.95
2022-12-22T03:41:01.488Z,0.80
2022-12-22T03:43:46.348Z,0.67
2022-12-22T03:46:15.151Z,0.70
2022-12-22T03:48:41.939Z,1.00
2022-12-22T03:51:08.371Z,1.00
2022-12-22T03:53:34.713Z,0.70
2022-12-22T03:56:07.217Z,0.80
2022-12-22T03:58:34.226Z,0.90
2022-12-22T04:01:07.951Z,0.80
2022-12-22T04:03:34.568Z,1.02
2022-12-22T04:06:01.028Z,1.20
2022-12-22T04:08:27.398Z,1.00
2022-12-22T04:11:12.500Z,1.33
2022-12-22T04:13:38.886Z,0.90
2022-12-22T04:16:05.530Z,1.30
2022-12-22T04:18:31.935Z,0.90
2022-12-22T04:20:58.280Z,1.10
2022-12-22T04:23:24.707Z,1.20
2022-12-22T04:25:51.082Z,1.40
2022-12-22T04:28:17.508Z,1.25
2022-12-22T04:30:43.902Z,1.30
2022-12-22T04:33:10.331Z,1.10
2022-12-22T04:35:36.685Z,1.35
2022-12-22T04:38:03.081Z,1.15
2022-12-22T04:40:29.427Z,1.17
2022-12-22T04:42:55.777Z,0.75
2022-12-22T04:45:22.128Z,0.93
2022-12-22T04:47:48.491Z,0.95
2022-12-22T04:50:15.119Z,0.60
2022-12-22T04:52:41.481Z,1.00
2022-12-22T04:55:09.234Z,1.10
2022-12-22T04:57:40.538Z,0.80
2022-12-22T05:00:08.790Z,0.50
2022-12-22T05:02:35.206Z,0.70
2022-12-22T05:05:01.751Z,0.60
2022-12-22T05:07:28.144Z,0.57
2022-12-22T05:09:54.543Z,0.70
2022-12-22T05:12:39.274Z,0.80
2022-12-22T05:15:06.558Z,0.88
2022-12-22T05:17:32.923Z,0.70
2022-12-22T05:19:59.268Z,0.50
2022-12-22T05:22:25.655Z,0.60
2022-12-22T05:24:52.001Z,0.50
2022-12-22T05:27:18.358Z,0.40
2022-12-22T05:29:44.736Z,0.50
2022-12-22T05:32:11.107Z,0.50
2022-12-22T05:34:37.451Z,0.50
2022-12-22T05:37:03.808Z,0.60
2022-12-22T05:39:30.177Z,0.50
2022-12-22T05:41:56.520Z,0.40
2022-12-22T05:44:22.892Z,0.68
2022-12-22T05:46:52.307Z,0.60
2022-12-22T05:49:19.398Z,0.68
2022-12-22T05:51:46.497Z,0.55
2022-12-22T05:54:12.855Z,0.70
2022-12-22T05:56:39.214Z,0.80
2022-12-22T05:59:05.579Z,0.57
2022-12-22T06:01:31.975Z,0.40
2022-12-22T06:04:00.605Z,0.50
2022-12-22T06:06:27.187Z,0.40
2022-12-22T06:08:53.547Z,0.50
2022-12-22T06:11:19.908Z,0.40
2022-12-22T06:13:46.325Z,0.40
2022-12-22T06:16:12.711Z,0.40
2022-12-22T06:18:39.105Z,0.40
2022-12-22T06:21:05.604Z,0.40
2022-12-22T06:23:31.957Z,0.40
2022-12-22T06:26:01.504Z,0.40
2022-12-22T06:28:28.546Z,0.40
2022-12-22T06:30:55.556Z,0.40
2022-12-22T06:33:22.010Z,0.40
2022-12-22T06:35:52.357Z,0.40
2022-12-22T06:38:23.799Z,0.40
2022-12-22T06:40:50.167Z,0.40
2022-12-22T06:43:16.558Z,0.40
2022-12-22T06:45:43.712Z,0.43
2022-12-22T06:48:12.324Z,0.50
2022-12-22T06:50:39.471Z,0.70
2022-12-22T06:53:08.499Z,0.30
2022-12-22T06:55:35.302Z,0.30
2022-12-22T06:58:02.139Z,0.30
2022-12-22T07:00:28.721Z,0.30
2022-12-22T07:02:55.313Z,0.30
2022-12-22T07:05:23.754Z,0.30
2022-12-22T07:07:50.488Z,0.30
2022-12-22T07:10:16.861Z,0.32
2022-12-22T07:12:43.214Z,1.10
2022-12-22T07:15:10.258Z,0.47
2022-12-22T07:17:36.717Z,0.40
2022-12-22T07:20:03.269Z,0.20
2022-12-22T07:22:30.630Z,0.22
2022-12-22T07:24:57.837Z,0.30
2022-12-22T07:27:24.239Z,0.30
2022-12-22T07:29:50.601Z,0.30
2022-12-22T07:32:16.953Z,0.40
2022-12-22T07:34:43.359Z,0.30
2022-12-22T07:37:09.775Z,0.50
2022-12-22T07:39:36.229Z,0.40
2022-12-22T07:42:21.316Z,0.50
2022-12-22T07:44:47.701Z,0.40
2022-12-22T07:47:14.129Z,0.35
2022-12-22T07:49:59.220Z,0.50
2022-12-22T07:52:25.596Z,0.40
2022-12-22T07:54:51.983Z,0.47
2022-12-22T07:57:18.344Z,0.30
2022-12-22T07:59:44.703Z,0.30
2022-12-22T08:02:12.211Z,0.30
2022-12-22T08:04:38.765Z,0.30
2022-12-22T08:07:05.211Z,0.30
2022-12-22T08:09:31.586Z,0.30
2022-12-22T08:11:57.941Z,0.25
2022-12-22T08:14:24.316Z,0.20
2022-12-22T08:16:50.700Z,0.22
2022-12-22T08:19:17.094Z,0.30
2022-12-22T08:21:50.323Z,0.20
2022-12-22T08:24:19.032Z,0.20
2022-12-22T08:26:49.260Z,0.30
2022-12-22T08:29:23.731Z,0.20
2022-12-22T08:31:50.340Z,0.20
2022-12-22T08:34:17.034Z,0.20
2022-12-22T08:36:48.058Z,0.20
2022-12-22T08:39:16.321Z,0.27
2022-12-22T08:41:51.810Z,0.17
2022-12-22T08:44:29.104Z,0.30
2022-12-22T08:46:58.019Z,0.20
2022-12-22T08:49:25.290Z,0.30
2022-12-22T08:51:52.739Z,0.40
2022-12-22T08:54:19.675Z,0.20
2022-12-22T08:56:46.232Z,0.20
2022-12-22T08:59:13.475Z,0.20
2022-12-22T09:01:44.256Z,0.43
2022-12-22T09:04:15.073Z,0.30
2022-12-22T09:06:41.671Z,0.40
2022-12-22T09:09:10.506Z,0.28
2022-12-22T09:11:37.221Z,0.30
2022-12-22T09:14:05.314Z,0.40
2022-12-22T09:16:33.947Z,0.30
2022-12-22T09:19:00.643Z,0.30
2022-12-22T09:21:28.019Z,0.20
2022-12-22T09:23:55.469Z,0.30
2022-12-22T09:26:23.716Z,0.22
2022-12-22T09:28:51.081Z,0.30
2022-12-22T09:31:19.357Z,0.20
2022-12-22T09:33:46.344Z,0.40
2022-12-22T09:36:15.304Z,0.30
2022-12-22T09:38:42.186Z,0.30
2022-12-22T09:41:14.929Z,0.30
2022-12-22T09:43:41.327Z,0.30
2022-12-22T09:46:35.163Z,0.30
2022-12-22T09:49:01.911Z,0.30
2022-12-22T09:51:29.872Z,0.30
2022-12-22T09:54:01.037Z,0.30
2022-12-22T09:56:28.992Z,0.30
2022-12-22T09:58:55.599Z,0.30
2022-12-22T10:01:48.428Z,0.20
2022-12-22T10:04:44.918Z,0.50
2022-12-22T10:07:32.567Z,0.30
2022-12-22T10:10:17.025Z,0.30
2022-12-22T10:12:43.402Z,0.10
2022-12-22T10:15:16.849Z,0.20
2022-12-22T10:17:50.969Z,0.25
2022-12-22T10:20:26.857Z,0.20
2022-12-22T10:23:01.822Z,0.20
2022-12-22T10:26:17.261Z,0.10
2022-12-22T10:28:27.554Z,0.20
2022-12-22T10:31:18.208Z,0.20
2022-12-22T10:33:47.765Z,0.20
2022-12-22T10:36:21.107Z,0.32
2022-12-22T10:39:08.775Z,0.20
2022-12-22T10:41:47.482Z,0.20
2022-12-22T10:44:13.758Z,0.20
2022-12-22T10:46:44.035Z,0.10
2022-12-22T10:52:30.013Z,0.20
2022-12-22T10:55:19.326Z,0.20
2022-12-22T10:57:45.932Z,0.20
2022-12-22T11:00:23.225Z,0.27
2022-12-22T11:02:54.555Z,0.20
2022-12-22T11:05:21.677Z,0.20
2022-12-22T11:07:48.486Z,0.20
2022-12-22T11:10:14.850Z,0.13
2022-12-22T11:13:02.753Z,0.30
2022-12-22T11:15:47.998Z,0.30
2022-12-22T11:18:30.032Z,0.30
2022-12-22T11:21:24.317Z,0.30
2022-12-22T11:24:01.696Z,0.28
2022-12-22T11:27:01.899Z,0.30
2022-12-22T11:29:50.308Z,0.20
2022-12-22T11:32:37.902Z,0.20
2022-12-22T11:35:26.926Z,0.20
2022-12-22T11:38:19.259Z,0.20
2022-12-22T11:40:50.695Z,0.23
2022-12-22T11:43:46.184Z,0.30
2022-12-22T11:46:23.968Z,0.40
2022-12-22T11:48:53.091Z,0.40
2022-12-22T11:51:43.389Z,0.50
2022-12-22T11:54:38.670Z,0.70
2022-12-22T11:57:33.671Z,0.60
2022-12-22T12:00:17.111Z,0.50
2022-12-22T12:03:18.608Z,0.50
2022-12-22T12:06:16.248Z,0.40
2022-12-22T12:09:18.024Z,0.37
2022-12-22T12:12:08.689Z,0.32
2022-12-22T12:14:53.107Z,0.25
2022-12-22T12:18:00.925Z,0.60
2022-12-22T12:20:49.024Z,0.40
2022-12-22T12:23:34.878Z,0.67
2022-12-22T12:26:06.244Z,2.00
2022-12-22T12:28:32.544Z,1.70
2022-12-22T12:31:00.857Z,1.00
2022-12-22T12:33:51.325Z,0.70
2022-12-22T12:36:46.948Z,0.40
2022-12-22T12:39:25.091Z,0.43
2022-12-22T12:42:10.420Z,0.50
2022-12-22T12:44:38.491Z,0.50
2022-12-22T12:47:20.974Z,0.40
2022-12-22T12:50:24.373Z,0.30
2022-12-22T12:52:50.661Z,0.40
2022-12-22T12:55:32.208Z,0.40
2022-12-22T12:58:02.329Z,0.57
2022-12-22T13:00:34.611Z,0.60
2022-12-22T13:03:02.074Z,0.40
2022-12-22T13:05:50.377Z,0.32
2022-12-22T13:08:47.614Z,0.40
2022-12-22T13:11:52.194Z,0.30
2022-12-22T13:14:05.921Z,0.50
2022-12-22T13:16:38.523Z,0.40
2022-12-22T13:19:14.857Z,0.50
2022-12-22T13:21:54.233Z,0.65
2022-12-22T13:24:26.902Z,0.40
2022-12-22T13:26:55.860Z,0.50
2022-12-22T13:29:22.333Z,0.87
2022-12-22T13:31:53.108Z,1.13
2022-12-22T13:34:22.220Z,0.70
2022-12-22T13:36:50.784Z,0.43
2022-12-22T13:39:17.173Z,0.40
2022-12-22T13:41:46.626Z,0.20
2022-12-22T13:44:19.386Z,0.30
2022-12-22T13:46:46.635Z,0.20
2022-12-22T13:49:30.257Z,0.20
2022-12-22T13:52:05.725Z,0.30
2022-12-22T13:54:35.885Z,0.20
2022-12-22T13:57:05.456Z,0.20
2022-12-22T13:59:35.548Z,0.30
2022-12-22T14:02:08.023Z,0.20
2022-12-22T14:04:39.553Z,0.30
2022-12-22T14:07:18.288Z,0.30
2022-12-22T14:09:56.350Z,0.28
2022-12-22T14:12:25.833Z,0.30
2022-12-22T14:14:54.866Z,0.20
2022-12-22T14:17:22.837Z,0.28
2022-12-22T14:19:51.466Z,0.27
2022-12-22T14:22:33.492Z,0.30
2022-12-22T14:25:08.171Z,0.30
2022-12-22T14:27:42.045Z,0.50
2022-12-22T14:30:26.371Z,0.50
2022-12-22T14:32:56.253Z,0.37
2022-12-22T14:35:22.719Z,0.60
2022-12-22T14:38:18.043Z,0.57
2022-12-22T14:40:45.439Z,0.70
2022-12-22T14:43:18.919Z,0.70
2022-12-22T14:45:48.361Z,0.70
2022-12-22T14:48:27.853Z,0.63
2022-12-22T14:50:55.295Z,0.50
2022-12-22T14:53:28.431Z,0.45
2022-12-22T14:55:54.977Z,0.40
2022-12-22T14:58:31.166Z,0.40
2022-12-22T15:01:16.230Z,0.40
2022-12-22T15:03:43.757Z,0.55
2022-12-22T15:06:28.420Z,0.50
2022-12-22T15:09:06.705Z,0.50
2022-12-22T15:11:36.430Z,0.60
2022-12-22T15:14:04.526Z,0.70
2022-12-22T15:16:31.543Z,0.80
2022-12-22T15:18:58.076Z,0.98
2022-12-22T15:21:24.457Z,0.70
2022-12-22T15:23:50.887Z,0.70
2022-12-22T15:26:17.545Z,0.60
2022-12-22T15:28:43.912Z,0.82
2022-12-22T15:31:15.249Z,0.50
2022-12-22T15:33:42.685Z,0.70
2022-12-22T15:36:11.588Z,0.67
2022-12-22T15:38:39.227Z,1.00
2022-12-22T15:41:06.872Z,1.80
2022-12-22T15:43:57.209Z,1.27
2022-12-22T15:46:22.167Z,1.20
2022-12-22T15:48:48.766Z,1.27
2022-12-22T15:51:24.866Z,0.73
2022-12-22T15:53:52.009Z,1.00
2022-12-22T15:56:21.337Z,1.75
2022-12-22T15:58:48.235Z,1.40
2022-12-22T16:01:14.663Z,1.50
2022-12-22T16:03:41.418Z,1.60
2022-12-22T16:06:13.661Z,1.60
2022-12-22T16:08:44.340Z,1.70
2022-12-22T16:11:10.825Z,1.50
2022-12-22T16:13:37.779Z,3.03
2022-12-22T16:16:05.084Z,3.00
2022-12-22T16:18:32.419Z,2.53
2022-12-22T16:21:08.194Z,2.65
2022-12-22T16:23:36.606Z,2.40
2022-12-22T16:26:04.787Z,1.87
2022-12-22T16:28:32.906Z,1.95
2022-12-22T16:31:00.551Z,2.05
2022-12-22T16:33:27.108Z,1.60
2022-12-22T16:35:53.679Z,1.38
2022-12-22T16:38:20.351Z,1.20
2022-12-22T16:40:50.264Z,1.17
2022-12-22T16:46:13.572Z,1.20
2022-12-22T16:48:44.472Z,1.27
2022-12-22T16:51:26.275Z,0.83
2022-12-22T16:53:53.043Z,0.77
2022-12-22T16:56:23.331Z,0.75
2022-12-22T16:58:49.828Z,0.90
2022-12-22T17:01:37.704Z,0.85
2022-12-22T17:04:11.226Z,1.60
2022-12-22T17:06:38.028Z,1.40
2022-12-22T17:09:07.326Z,1.30
2022-12-22T17:11:34.435Z,1.65
2022-12-22T17:14:07.059Z,1.85
2022-12-22T17:16:33.618Z,2.40
2022-12-22T17:19:00.031Z,1.65
2022-12-22T17:21:29.170Z,1.73
2022-12-22T17:24:03.851Z,2.00
2022-12-22T17:26:33.675Z,1.90
2022-12-22T17:29:00.623Z,2.27
2022-12-22T17:31:27.141Z,2.13
2022-12-22T17:33:53.569Z,2.10
2022-12-22T17:36:39.676Z,2.05
2022-12-22T17:39:12.937Z,3.83
2022-12-22T17:41:39.771Z,2.43
2022-12-22T17:44:06.348Z,2.30
2022-12-22T17:46:32.828Z,2.80
2022-12-22T17:48:59.272Z,9.82
2022-12-22T17:51:28.605Z,12.02
2022-12-22T17:53:57.742Z,11.57
2022-12-22T17:56:25.685Z,9.57
2022-12-22T17:58:52.944Z,7.07
2022-12-22T18:01:21.847Z,7.35
2022-12-22T18:03:48.535Z,11.00
2022-12-22T18:06:18.347Z,5.47
2022-12-22T18:08:45.376Z,5.03
2022-12-22T18:11:11.935Z,5.22
2022-12-22T18:13:38.446Z,7.95
2022-12-22T18:16:05.980Z,12.63
2022-12-22T18:18:32.458Z,8.00
2022-12-22T18:21:05.909Z,5.13
2022-12-22T18:23:36.368Z,4.30
2022-12-22T18:26:09.570Z,2.97
2022-12-22T18:28:36.581Z,8.02
2022-12-22T18:31:03.069Z,3.60
2022-12-22T18:33:29.422Z,2.97
2022-12-22T18:35:58.998Z,3.10
2022-12-22T18:38:29.423Z,2.85
2022-12-22T18:40:56.547Z,2.40
2022-12-22T18:43:23.083Z,1.90
2022-12-22T18:45:50.022Z,1.65
2022-12-22T18:48:16.528Z,1.77
2022-12-22T18:50:43.362Z,2.10
2022-12-22T18:53:30.258Z,2.40
2022-12-22T18:55:57.881Z,1.97
2022-12-22T18:58:25.409Z,2.00
2022-12-22T19:00:54.495Z,2.35
2022-12-22T19:03:24.591Z,1.85
2022-12-22T19:05:51.029Z,2.00
2022-12-22T19:08:19.805Z,1.80
2022-12-22T19:10:58.585Z,2.08
2022-12-22T19:13:37.216Z,2.00
2022-12-22T19:16:04.229Z,2.45
2022-12-22T19:18:30.795Z,2.30
2022-12-22T19:20:57.263Z,3.20
2022-12-22T19:23:25.689Z,2.72
2022-12-22T19:26:08.403Z,3.00
2022-12-22T19:28:41.984Z,3.08
2022-12-22T19:31:12.544Z,3.05
2022-12-22T19:33:42.309Z,2.57
2022-12-22T19:36:37.946Z,2.55
2022-12-22T19:39:05.887Z,3.50
2022-12-22T19:41:43.189Z,3.40
2022-12-22T19:44:30.116Z,3.28
2022-12-22T19:46:59.201Z,4.50
2022-12-22T19:49:27.460Z,3.80
2022-12-22T19:51:55.602Z,2.75
2022-12-22T19:54:22.145Z,2.38
2022-12-22T19:56:54.750Z,3.13
2022-12-22T19:59:37.304Z,2.60
2022-12-22T20:02:27.732Z,6.40
2022-12-22T20:04:55.405Z,2.70
2022-12-22T20:07:24.202Z,1.90
2022-12-22T20:09:50.708Z,2.25
2022-12-22T20:12:31.660Z,2.27
2022-12-22T20:14:58.360Z,2.10
2022-12-22T20:17:24.848Z,1.95
2022-12-22T20:19:51.410Z,1.92
2022-12-22T20:22:20.545Z,2.00
2022-12-22T20:24:49.766Z,2.10
2022-12-22T20:27:27.216Z,1.83
2022-12-22T20:29:53.579Z,2.05
2022-12-22T20:32:27.282Z,3.53
2022-12-22T20:34:54.142Z,2.58
2022-12-22T20:37:20.551Z,6.00
2022-12-22T20:39:46.975Z,5.63
2022-12-22T20:42:19.010Z,2.70
2022-12-22T20:45:02.828Z,2.20
2022-12-22T20:47:33.091Z,1.50
2022-12-22T20:49:59.578Z,1.83
2022-12-22T20:52:26.192Z,2.20
2022-12-22T20:54:52.540Z,1.90
2022-12-22T20:57:20.149Z,1.98
2022-12-22T20:59:53.848Z,1.80
2022-12-22T21:02:26.929Z,1.90
2022-12-22T21:04:53.587Z,1.85
2022-12-22T21:07:19.959Z,3.80
2022-12-22T21:09:46.411Z,2.80
2022-12-22T21:12:12.770Z,2.72
2022-12-22T21:14:39.690Z,2.00
2022-12-22T21:17:15.154Z,1.90
2022-12-22T21:19:41.686Z,1.83
2022-12-22T21:22:08.028Z,1.55
2022-12-22T21:24:34.427Z,1.90
2022-12-22T21:27:00.829Z,1.70
2022-12-22T21:29:27.280Z,1.70
2022-12-22T21:31:54.263Z,1.63
2022-12-22T21:34:20.819Z,1.63
2022-12-22T21:36:50.640Z,1.50
2022-12-22T21:39:33.229Z,1.40
2022-12-22T21:42:04.503Z,1.30
2022-12-22T21:44:33.639Z,1.60
2022-12-22T21:47:00.904Z,1.67
2022-12-22T21:49:30.844Z,1.25
2022-12-22T21:51:57.558Z,1.23
2022-12-22T21:54:24.887Z,1.17
2022-12-22T21:56:53.136Z,1.73
2022-12-22T21:59:19.926Z,1.55
2022-12-22T22:01:46.751Z,1.20
2022-12-22T22:04:13.619Z,1.40
2022-12-22T22:06:40.137Z,1.60
2022-12-22T22:09:07.174Z,0.90
2022-12-22T22:11:53.940Z,1.23
2022-12-22T22:14:20.343Z,0.90
2022-12-22T22:16:46.685Z,0.77
2022-12-22T22:19:13.889Z,1.13
2022-12-22T22:21:40.263Z,1.15
2022-12-22T22:24:06.893Z,1.15
2022-12-22T22:26:33.261Z,1.23
2022-12-22T22:28:59.635Z,1.10
2022-12-22T22:31:26.045Z,1.50
2022-12-22T22:33:52.486Z,1.27
2022-12-22T22:36:18.829Z,1.00
2022-12-22T22:38:45.186Z,1.13
2022-12-22T22:41:11.547Z,1.10
2022-12-22T22:43:37.900Z,1.20
2022-12-22T22:46:04.476Z,1.60
2022-12-22T22:48:31.042Z,1.48
2022-12-22T22:50:57.438Z,2.03
2022-12-22T22:53:23.869Z,1.30
2022-12-22T22:55:50.216Z,2.13
2022-12-22T22:58:16.604Z,1.40
2022-12-22T23:00:42.959Z,1.13
2022-12-22T23:03:09.458Z,0.80
2022-12-22T23:05:36.233Z,1.17
2022-12-22T23:08:02.621Z,0.93
2022-12-22T23:10:29.056Z,0.60
2022-12-22T23:12:55.502Z,0.88
2022-12-22T23:15:21.919Z,0.80
2022-12-22T23:17:51.123Z,0.80
2022-12-22T23:20:17.756Z,0.60
2022-12-22T23:22:44.116Z,0.50
2022-12-22T23:25:10.491Z,0.70
2022-12-22T23:27:36.837Z,0.50
2022-12-22T23:30:04.571Z,0.60
2022-12-22T23:32:30.919Z,0.80
2022-12-22T23:34:57.284Z,1.33
2022-12-22T23:37:23.648Z,1.10
2022-12-22T23:39:50.013Z,1.10
2022-12-22T23:42:16.368Z,1.23
2022-12-22T23:44:42.748Z,1.08
2022-12-22T23:47:09.246Z,2.40
2022-12-22T23:49:35.687Z,1.77
2022-12-22T23:52:02.039Z,1.60
2022-12-22T23:54:30.286Z,2.60
2022-12-22T23:56:56.715Z,2.53
2022-12-22T23:59:23.080Z,2.10
